UPDATE Mit 1. Juli wird auf eine neue Wetterseite umgestellt
Wer schon probieren möchte kann unter https://wetter.hildner.at gerne testen
Die Seite befindet sich noch im Aufbau

Es liegt ein Kommunikationsproblem . Gehen Sie direkt zur Website Meteoalarm : www.meteoalarm.eu und überprüfen Sie die Wetterwarnungen..


Rindlberg West Mehr Informationen Rindlberg West


Stuetzi - Rindlberg Ost Mehr Informationen Stuetzi - Rindlberg Ost


Regenradar Mehr Informationen rain snow radar


Sie finden meine Wetter-Infos auch auf:

Weather Underground

AWEKAS



METAR-Meldungen aus der Umgebung

   
LOWL - Linz
Aktualisierung: 28-11-2022 15:20
Stark bewölkt  
Stark bewölkt  
   Wind: NW 5.6 km/h
Wind: NW 5.6 km/h
Temperatur: 3°C
Gefühlt: 2°C
Taupunkt: 1°C
Luftfeuchte: 87%
Luftdruck: 1016 hPa
Wolken: Stark bewölkt
Sichtbarkeit: Mehr als 10 km
Bewölkung: leicht bewölkt 1200 ft,
Teilweise bewölkt 7000 ft,
Stark bewölkt 8000 ft
LOWL 281420Z AUTO 31003KT 290V350 9999 FEW012 SCT070 BKN080 03/01 Q1016 NOSIG
LOWW - Vienna
Aktualisierung: 28-11-2022 15:20
Stark bewölkt  
Stark bewölkt  
   Wind: SO 33.3 km/h
Wind: SO 33.3 km/h
Temperatur: 4°C
Gefühlt: -2°C
Taupunkt: 1°C
Luftfeuchte: 81%
Luftdruck: 1018 hPa
Wolken: Stark bewölkt
Sichtbarkeit: Mehr als 10 km
Bewölkung: leicht bewölkt 1100 ft,
Stark bewölkt 1200 ft
LOWW 281420Z 14018KT 9999 FEW011 BKN012 04/01 Q1018 NOSIG
 

Script entwickelt von  Saratoga-weather.org Angepasst für das Template von  Weerstation Leuven